Time;durP1;ratioP1;P1;durP2;ratioP2;P2;SDS_P1;SDS_P2;PMS_P1;PMS_P2;Temp;Humidity;BMP_temperature;BMP_pressure;BME280_temperature;BME280_humidity;BME280_pressure;Samples;Min_cycle;Max_cycle;Signal;HPM_P1;HPM_P2
2022/03/20 00:00:45;;;;;;;2.00;1.90;;;;;;;;;;5159352;27;20289;-72
2022/03/20 00:03:33;;;;;;;1.97;1.87;;;;;;;;;;5152736;27;20573;-72
2022/03/20 00:06:20;;;;;;;2.13;2.03;;;;;;;;;;5153878;27;20694;-71
2022/03/20 00:09:07;;;;;;;2.10;2.00;;;;;;;;;;5165149;27;20313;-72
2022/03/20 00:11:53;;;;;;;1.80;1.70;;;;;;;;;;5158157;27;20233;-72
2022/03/20 00:14:40;;;;;;;2.20;2.00;;;;;;;;;;5155675;27;20206;-71
2022/03/20 00:17:29;;;;;;;2.00;1.90;;;;;;;;;;5147804;27;20334;-72
2022/03/20 00:20:16;;;;;;;2.13;2.03;;;;;;;;;;5155349;27;20674;-72
2022/03/20 00:23:04;;;;;;;1.90;1.80;;;;;;;;;;5161449;27;20205;-72
2022/03/20 00:25:52;;;;;;;1.83;1.73;;;;;;;;;;5153342;27;20202;-71
2022/03/20 00:28:39;;;;;;;1.90;1.80;;;;;;;;;;5158325;27;20221;-71
2022/03/20 00:31:28;;;;;;;2.20;2.00;;;;;;;;;;5161290;27;20639;-72
2022/03/20 00:34:16;;;;;;;1.73;1.63;;;;;;;;;;5157804;27;20217;-72
2022/03/20 00:37:04;;;;;;;2.03;1.90;;;;;;;;;;5149804;27;20240;-72
2022/03/20 00:39:51;;;;;;;2.50;2.30;;;;;;;;;;5163668;27;20220;-72
2022/03/20 00:42:38;;;;;;;2.23;2.10;;;;;;;;;;5159160;27;20643;-72
2022/03/20 00:45:25;;;;;;;2.07;1.97;;;;;;;;;;5152322;27;20208;-71
2022/03/20 00:48:11;;;;;;;2.20;2.10;;;;;;;;;;5151957;27;20203;-71
2022/03/20 00:51:03;;;;;;;2.07;1.97;;;;;;;;;;5157624;27;20679;-72
2022/03/20 00:53:51;;;;;;;2.30;2.20;;;;;;;;;;5165902;27;21232;-72
2022/03/20 00:56:38;;;;;;;2.10;2.00;;;;;;;;;;5152480;27;20209;-71
2022/03/20 00:59:25;;;;;;;2.07;1.97;;;;;;;;;;5151340;27;20671;-71
2022/03/20 01:02:12;;;;;;;3.17;1.80;;;;;;;;;;5158586;27;20732;-71
2022/03/20 01:04:59;;;;;;;1.93;1.83;;;;;;;;;;5154356;27;20860;-71
2022/03/20 01:07:47;;;;;;;2.27;2.10;;;;;;;;;;5159000;27;20207;-71
2022/03/20 01:10:34;;;;;;;2.20;2.10;;;;;;;;;;5160311;27;20206;-71
2022/03/20 01:13:21;;;;;;;2.30;2.10;;;;;;;;;;5158345;27;20843;-71
2022/03/20 01:16:08;;;;;;;2.60;2.40;;;;;;;;;;5156335;27;20659;-71
2022/03/20 01:18:55;;;;;;;1.90;1.80;;;;;;;;;;5153754;27;20206;-71
2022/03/20 01:21:43;;;;;;;2.00;1.90;;;;;;;;;;5160290;27;20221;-72
2022/03/20 01:24:31;;;;;;;2.30;2.10;;;;;;;;;;5160266;27;20283;-72
2022/03/20 01:27:18;;;;;;;1.83;1.73;;;;;;;;;;5153294;27;20267;-72
2022/03/20 01:30:06;;;;;;;1.77;1.67;;;;;;;;;;5156976;27;20310;-71
2022/03/20 01:32:53;;;;;;;2.00;1.90;;;;;;;;;;5158932;27;20225;-72
2022/03/20 01:35:40;;;;;;;2.10;2.00;;;;;;;;;;5151041;27;20287;-72
2022/03/20 01:38:26;;;;;;;1.87;1.77;;;;;;;;;;5154745;27;20292;-72
2022/03/20 01:41:15;;;;;;;2.10;2.00;;;;;;;;;;5156106;27;20316;-71
2022/03/20 01:44:03;;;;;;;2.00;1.90;;;;;;;;;;5150523;27;20324;-72
2022/03/20 01:46:51;;;;;;;1.70;1.60;;;;;;;;;;5160592;27;20216;-72
2022/03/20 01:49:37;;;;;;;1.90;1.80;;;;;;;;;;5155116;27;20235;-72
2022/03/20 01:52:25;;;;;;;2.00;1.90;;;;;;;;;;5155222;27;20289;-72
2022/03/20 01:55:13;;;;;;;1.97;1.80;;;;;;;;;;5158848;27;20213;-72
2022/03/20 01:58:02;;;;;;;1.90;1.80;;;;;;;;;;5152080;27;20199;-71
2022/03/20 02:00:48;;;;;;;1.50;1.43;;;;;;;;;;5159201;27;20210;-68
2022/03/20 02:03:35;;;;;;;1.67;1.63;;;;;;;;;;5147366;27;20230;-67
2022/03/20 02:06:26;;;;;;;1.70;1.60;;;;;;;;;;5147020;27;20317;-68
2022/03/20 02:09:16;;;;;;;2.10;1.90;;;;;;;;;;5146782;27;20758;-67
2022/03/20 02:12:04;;;;;;;1.70;1.60;;;;;;;;;;5153034;27;20213;-67
2022/03/20 02:14:53;;;;;;;1.60;1.50;;;;;;;;;;5159423;27;20265;-67
2022/03/20 02:17:41;;;;;;;1.97;1.87;;;;;;;;;;5152033;27;20198;-68
2022/03/20 02:20:31;;;;;;;1.90;1.80;;;;;;;;;;5156392;27;20653;-68
2022/03/20 02:23:19;;;;;;;1.87;1.77;;;;;;;;;;5155294;27;20213;-68
2022/03/20 02:26:06;;;;;;;1.60;1.50;;;;;;;;;;5153943;27;20211;-68
2022/03/20 02:28:53;;;;;;;2.03;1.93;;;;;;;;;;5151705;27;20299;-67
2022/03/20 02:31:40;;;;;;;2.13;1.93;;;;;;;;;;5150813;27;20274;-67
2022/03/20 02:34:27;;;;;;;1.60;1.50;;;;;;;;;;5156055;27;20777;-68
2022/03/20 02:37:15;;;;;;;2.20;2.10;;;;;;;;;;5160040;27;20208;-68
2022/03/20 02:40:04;;;;;;;2.10;2.00;;;;;;;;;;5153199;27;20286;-67
2022/03/20 02:42:54;;;;;;;1.80;1.70;;;;;;;;;;5158485;27;20202;-68
2022/03/20 02:45:41;;;;;;;1.63;1.53;;;;;;;;;;5158345;27;20675;-68
2022/03/20 02:48:28;;;;;;;1.60;1.50;;;;;;;;;;5162224;27;20709;-68
2022/03/20 02:51:17;;;;;;;1.70;1.60;;;;;;;;;;5151150;27;20284;-68
2022/03/20 02:54:04;;;;;;;1.70;1.60;;;;;;;;;;5154673;27;20200;-68
2022/03/20 02:56:52;;;;;;;1.57;1.50;;;;;;;;;;5147822;27;20209;-67
2022/03/20 02:59:39;;;;;;;1.70;1.60;;;;;;;;;;5157501;27;20215;-68
2022/03/20 03:02:26;;;;;;;1.60;1.50;;;;;;;;;;5155055;27;20221;-68
2022/03/20 03:05:14;;;;;;;1.33;1.33;;;;;;;;;;5164484;27;20241;-68
2022/03/20 03:11:12;;;;;;;1.83;1.73;;;;;;;;;;5116592;27;20555;-67
2022/03/20 03:15:18;;;;;;;1.60;1.50;;;;;;;;;;5156026;27;20232;-67
2022/03/20 03:17:08;;;;;;;1.83;1.73;;;;;;;;;;5154411;27;20201;-68
2022/03/20 03:19:55;;;;;;;1.63;1.53;;;;;;;;;;5165030;27;20281;-69
2022/03/20 03:22:42;;;;;;;1.57;1.57;;;;;;;;;;5156747;27;20799;-68
2022/03/20 03:25:29;;;;;;;1.83;1.73;;;;;;;;;;5162341;27;20204;-68
2022/03/20 03:28:16;;;;;;;1.70;1.60;;;;;;;;;;5159497;27;20315;-67
2022/03/20 03:31:06;;;;;;;1.80;1.70;;;;;;;;;;5155992;27;20356;-68
2022/03/20 03:36:57;;;;;;;1.93;1.83;;;;;;;;;;5159950;27;20205;-68
2022/03/20 03:39:44;;;;;;;1.70;1.60;;;;;;;;;;5155415;27;20206;-67
2022/03/20 03:42:31;;;;;;;2.17;1.50;;;;;;;;;;5149905;27;20203;-67
2022/03/20 03:45:19;;;;;;;1.47;1.40;;;;;;;;;;5165107;27;20315;-67
2022/03/20 03:48:07;;;;;;;1.97;1.77;;;;;;;;;;5168867;27;20269;-67
2022/03/20 03:50:54;;;;;;;1.77;1.67;;;;;;;;;;5152078;27;20229;-67
2022/03/20 03:53:41;;;;;;;1.60;1.50;;;;;;;;;;5154884;27;20316;-67
2022/03/20 03:56:28;;;;;;;1.57;1.47;;;;;;;;;;5161143;27;20288;-67
2022/03/20 03:59:16;;;;;;;1.83;1.73;;;;;;;;;;5158738;27;20213;-67
2022/03/20 04:02:03;;;;;;;1.63;1.53;;;;;;;;;;5162767;27;20214;-68
2022/03/20 04:04:52;;;;;;;1.50;1.37;;;;;;;;;;5153007;27;20210;-67
2022/03/20 04:07:39;;;;;;;1.30;1.30;;;;;;;;;;5159865;27;20599;-67
2022/03/20 04:10:26;;;;;;;1.87;1.77;;;;;;;;;;5152644;27;20323;-67
2022/03/20 04:13:13;;;;;;;1.90;1.80;;;;;;;;;;5163102;27;20296;-67
2022/03/20 04:16:00;;;;;;;1.80;1.70;;;;;;;;;;5158780;27;20202;-67
2022/03/20 04:18:47;;;;;;;1.80;1.70;;;;;;;;;;5160579;27;20223;-67
2022/03/20 04:21:35;;;;;;;1.73;1.63;;;;;;;;;;5147037;27;20207;-67
2022/03/20 04:24:22;;;;;;;1.50;1.40;;;;;;;;;;5152716;27;20652;-67
2022/03/20 04:27:11;;;;;;;1.93;1.60;;;;;;;;;;5154796;27;20261;-68
2022/03/20 04:29:58;;;;;;;1.80;1.70;;;;;;;;;;5157106;27;20600;-67
2022/03/20 04:32:45;;;;;;;1.90;1.80;;;;;;;;;;5165544;27;20252;-67
2022/03/20 04:35:32;;;;;;;1.20;1.20;;;;;;;;;;5148353;27;20206;-67
2022/03/20 04:38:21;;;;;;;1.60;1.50;;;;;;;;;;5163850;27;20746;-68
2022/03/20 04:41:08;;;;;;;1.87;1.77;;;;;;;;;;5161949;27;20205;-68
2022/03/20 04:43:56;;;;;;;2.00;1.90;;;;;;;;;;5148103;27;20264;-67
2022/03/20 04:46:43;;;;;;;1.67;1.57;;;;;;;;;;5161112;27;20205;-67
2022/03/20 04:58:46;;;;;;;2.10;1.70;;;;;;;;;;5160265;27;20660;-68
2022/03/20 05:01:33;;;;;;;1.57;1.57;;;;;;;;;;5145461;27;20207;-67
2022/03/20 05:04:20;;;;;;;1.60;1.50;;;;;;;;;;5163850;27;20326;-67
2022/03/20 05:07:08;;;;;;;1.70;1.60;;;;;;;;;;5156200;27;20236;-67
2022/03/20 05:16:05;;;;;;;1.40;1.40;;;;;;;;;;5153411;27;20214;-68
2022/03/20 05:18:52;;;;;;;2.37;2.20;;;;;;;;;;5156889;27;20206;-69
2022/03/20 05:21:39;;;;;;;1.60;1.50;;;;;;;;;;5159442;27;20274;-67
2022/03/20 05:24:26;;;;;;;1.60;1.50;;;;;;;;;;5154484;27;20344;-67
2022/03/20 05:27:13;;;;;;;2.07;1.80;;;;;;;;;;5155030;27;20244;-67
2022/03/20 05:30:01;;;;;;;1.70;1.60;;;;;;;;;;5160190;27;20366;-67
2022/03/20 05:32:48;;;;;;;1.60;1.50;;;;;;;;;;5154975;27;20299;-67
2022/03/20 05:35:35;;;;;;;1.40;1.40;;;;;;;;;;5160614;27;20206;-67
2022/03/20 05:38:24;;;;;;;1.70;1.60;;;;;;;;;;5158465;27;20246;-67
2022/03/20 05:44:16;;;;;;;1.50;1.40;;;;;;;;;;5149615;27;20235;-67
2022/03/20 05:47:04;;;;;;;1.30;1.30;;;;;;;;;;5158977;27;20230;-67
2022/03/20 05:49:51;;;;;;;1.70;1.60;;;;;;;;;;5151604;27;20281;-67
2022/03/20 05:52:38;;;;;;;1.53;1.43;;;;;;;;;;5156363;27;20350;-67
2022/03/20 05:58:26;;;;;;;1.70;1.60;;;;;;;;;;5156073;27;20762;-67
2022/03/20 06:01:13;;;;;;;1.60;1.50;;;;;;;;;;5156638;27;20736;-67
2022/03/20 06:04:03;;;;;;;1.50;1.40;;;;;;;;;;5155105;27;20262;-67
2022/03/20 06:06:50;;;;;;;1.33;1.33;;;;;;;;;;5153661;27;20254;-67
2022/03/20 06:09:37;;;;;;;1.50;1.40;;;;;;;;;;5159064;27;20206;-67
2022/03/20 06:12:24;;;;;;;1.50;1.40;;;;;;;;;;5155840;27;20216;-68
2022/03/20 06:15:13;;;;;;;1.47;1.37;;;;;;;;;;5147607;27;20231;-67
2022/03/20 06:18:04;;;;;;;1.80;1.70;;;;;;;;;;5158064;27;20215;-67
2022/03/20 06:20:53;;;;;;;1.27;1.20;;;;;;;;;;5157192;27;20208;-67
2022/03/20 06:23:40;;;;;;;1.60;1.50;;;;;;;;;;5156387;27;20204;-67
2022/03/20 06:26:27;;;;;;;1.30;1.30;;;;;;;;;;5151896;27;20344;-67
2022/03/20 06:29:14;;;;;;;1.27;1.27;;;;;;;;;;5150302;27;20805;-67
2022/03/20 06:32:01;;;;;;;1.70;1.60;;;;;;;;;;5158929;27;20284;-67
2022/03/20 06:34:48;;;;;;;1.60;1.50;;;;;;;;;;5150215;27;20205;-67
2022/03/20 06:37:41;;;;;;;1.43;1.33;;;;;;;;;;5163158;27;20295;-67
2022/03/20 06:40:28;;;;;;;1.30;1.30;;;;;;;;;;5152455;27;20200;-67
2022/03/20 06:43:15;;;;;;;1.47;1.47;;;;;;;;;;5159961;27;20618;-67
2022/03/20 06:46:01;;;;;;;1.20;1.20;;;;;;;;;;5160539;27;20254;-67
2022/03/20 06:48:48;;;;;;;1.40;1.30;;;;;;;;;;5159673;27;20288;-67
2022/03/20 06:51:35;;;;;;;1.20;1.20;;;;;;;;;;5163155;27;20286;-67
2022/03/20 06:54:24;;;;;;;1.57;1.47;;;;;;;;;;5156297;27;20255;-67
2022/03/20 06:57:10;;;;;;;1.50;1.40;;;;;;;;;;5154383;27;20543;-66
2022/03/20 06:59:59;;;;;;;1.63;1.53;;;;;;;;;;5158993;27;20213;-69
2022/03/20 07:02:47;;;;;;;1.63;1.52;;;;;;;;;;5168082;27;20286;-66
2022/03/20 07:05:34;;;;;;;1.40;1.30;;;;;;;;;;5161324;27;20337;-66
2022/03/20 07:08:21;;;;;;;1.58;1.48;;;;;;;;;;5155627;27;20312;-66
2022/03/20 07:11:09;;;;;;;1.77;1.67;;;;;;;;;;5159988;27;20853;-66
2022/03/20 07:13:56;;;;;;;1.20;1.20;;;;;;;;;;5154168;27;20260;-67
2022/03/20 07:16:44;;;;;;;1.98;1.35;;;;;;;;;;5151055;27;20217;-67
2022/03/20 07:19:31;;;;;;;1.30;1.30;;;;;;;;;;5160066;27;20209;-64
2022/03/20 07:22:19;;;;;;;1.27;1.27;;;;;;;;;;5160766;27;20681;-64
2022/03/20 07:31:14;;;;;;;1.40;1.40;;;;;;;;;;5164440;27;20223;-66
2022/03/20 07:34:02;;;;;;;1.70;1.60;;;;;;;;;;5155665;27;20240;-65
2022/03/20 07:36:49;;;;;;;1.58;1.48;;;;;;;;;;5154290;27;20201;-65
2022/03/20 07:39:36;;;;;;;1.05;1.05;;;;;;;;;;5162361;27;20229;-65
2022/03/20 07:42:26;;;;;;;1.50;1.40;;;;;;;;;;5158667;27;20219;-65
2022/03/20 07:45:14;;;;;;;2.10;1.48;;;;;;;;;;5161304;27;20232;-65
2022/03/20 07:48:02;;;;;;;1.70;1.60;;;;;;;;;;5162484;27;20668;-65
2022/03/20 07:50:50;;;;;;;1.25;1.25;;;;;;;;;;5162427;27;20305;-66
2022/03/20 07:53:37;;;;;;;1.40;1.30;;;;;;;;;;5159912;27;20232;-66
2022/03/20 07:56:24;;;;;;;1.33;1.33;;;;;;;;;;5153459;27;20386;-65
2022/03/20 07:59:11;;;;;;;1.17;1.17;;;;;;;;;;5153361;27;20555;-66
2022/03/20 08:02:00;;;;;;;1.90;1.50;;;;;;;;;;5156962;27;20200;-66
2022/03/20 08:04:47;;;;;;;1.50;1.40;;;;;;;;;;5162236;27;20233;-65
2022/03/20 08:07:36;;;;;;;1.20;1.20;;;;;;;;;;5146324;27;20338;-65
2022/03/20 08:10:23;;;;;;;2.30;1.67;;;;;;;;;;5148868;27;20234;-65
2022/03/20 08:13:11;;;;;;;1.75;1.40;;;;;;;;;;5159436;27;20352;-65
2022/03/20 08:15:58;;;;;;;1.30;1.30;;;;;;;;;;5155644;27;20289;-68
2022/03/20 08:18:46;;;;;;;2.13;1.25;;;;;;;;;;5150926;27;20409;-68
2022/03/20 08:21:34;;;;;;;1.35;1.30;;;;;;;;;;5158005;27;20258;-67
2022/03/20 08:24:21;;;;;;;1.52;1.42;;;;;;;;;;5160524;27;20344;-67
2022/03/20 08:27:08;;;;;;;1.40;1.30;;;;;;;;;;5158593;27;20252;-67
2022/03/20 08:29:55;;;;;;;1.73;1.63;;;;;;;;;;5158568;27;20210;-66
2022/03/20 08:32:42;;;;;;;1.33;1.23;;;;;;;;;;5156286;27;20220;-67
2022/03/20 08:35:31;;;;;;;1.65;1.55;;;;;;;;;;5159892;27;20303;-67
2022/03/20 08:38:18;;;;;;;1.30;1.20;;;;;;;;;;5151437;27;20231;-67
2022/03/20 08:41:05;;;;;;;1.30;1.30;;;;;;;;;;5145882;27;20233;-67
2022/03/20 08:43:52;;;;;;;1.50;1.40;;;;;;;;;;5163420;27;20708;-67
2022/03/20 08:46:39;;;;;;;1.30;1.30;;;;;;;;;;5147871;27;20671;-67
2022/03/20 08:49:26;;;;;;;1.20;1.17;;;;;;;;;;5151542;27;20788;-67
2022/03/20 08:52:14;;;;;;;0.97;0.97;;;;;;;;;;5155159;27;20273;-66
2022/03/20 08:55:02;;;;;;;1.40;1.30;;;;;;;;;;5149127;27;20868;-66
2022/03/20 08:57:50;;;;;;;1.47;1.37;;;;;;;;;;5157961;27;20210;-66
2022/03/20 09:00:37;;;;;;;1.20;1.20;;;;;;;;;;5156226;27;20205;-67
2022/03/20 09:03:24;;;;;;;1.30;1.20;;;;;;;;;;5158959;27;20206;-66
2022/03/20 09:06:11;;;;;;;1.23;1.23;;;;;;;;;;5159780;27;20230;-66
2022/03/20 09:08:59;;;;;;;1.23;1.23;;;;;;;;;;5161447;27;20291;-66
2022/03/20 09:11:47;;;;;;;1.83;1.50;;;;;;;;;;5154933;27;20327;-67
2022/03/20 09:14:34;;;;;;;1.17;1.17;;;;;;;;;;5162795;27;20677;-67
2022/03/20 09:20:26;;;;;;;1.50;1.40;;;;;;;;;;5150466;27;20639;-67
2022/03/20 09:23:15;;;;;;;1.50;1.40;;;;;;;;;;5158422;27;20676;-67
2022/03/20 09:26:03;;;;;;;1.37;1.37;;;;;;;;;;5160248;27;20708;-66
2022/03/20 09:28:50;;;;;;;1.40;1.40;;;;;;;;;;5156707;27;20209;-66
2022/03/20 09:31:37;;;;;;;1.20;1.20;;;;;;;;;;5156568;27;20627;-66
2022/03/20 09:34:24;;;;;;;1.60;1.50;;;;;;;;;;5151442;27;20207;-66
2022/03/20 09:37:11;;;;;;;1.37;1.10;;;;;;;;;;5158915;27;20209;-66
2022/03/20 09:39:58;;;;;;;1.27;1.17;;;;;;;;;;5152984;27;20234;-67
2022/03/20 09:42:46;;;;;;;1.20;1.20;;;;;;;;;;5159153;27;20284;-67
2022/03/20 09:45:34;;;;;;;1.30;1.20;;;;;;;;;;5156083;27;20307;-66
2022/03/20 09:48:22;;;;;;;1.10;1.10;;;;;;;;;;5156440;27;20287;-66
2022/03/20 09:51:09;;;;;;;1.00;1.00;;;;;;;;;;5159867;27;20311;-67
2022/03/20 09:53:56;;;;;;;1.33;1.23;;;;;;;;;;5161297;27;20232;-66
2022/03/20 09:56:44;;;;;;;1.10;1.10;;;;;;;;;;5155516;27;20211;-66
2022/03/20 09:59:33;;;;;;;0.97;0.97;;;;;;;;;;5150484;27;20238;-66
2022/03/20 10:02:20;;;;;;;1.47;1.30;;;;;;;;;;5154262;27;20266;-66
2022/03/20 10:05:09;;;;;;;1.30;1.20;;;;;;;;;;5154465;27;20234;-69
2022/03/20 10:08:10;;;;;;;1.20;1.20;;;;;;;;;;5161229;27;20680;-66
2022/03/20 10:11:12;;;;;;;1.43;1.20;;;;;;;;;;5157237;27;20229;-66
2022/03/20 10:14:07;;;;;;;1.27;1.10;;;;;;;;;;5156520;27;20276;-66
2022/03/20 10:16:57;;;;;;;1.03;1.03;;;;;;;;;;5145633;27;20780;-66
2022/03/20 10:19:45;;;;;;;1.00;1.00;;;;;;;;;;5154173;27;20212;-65
2022/03/20 10:22:33;;;;;;;0.90;0.90;;;;;;;;;;5159529;27;20286;-65
2022/03/20 10:25:21;;;;;;;1.00;1.00;;;;;;;;;;5155692;27;20233;-65
2022/03/20 10:28:08;;;;;;;1.47;1.40;;;;;;;;;;5150919;27;20206;-65
2022/03/20 10:30:58;;;;;;;0.90;0.90;;;;;;;;;;5154043;27;20610;-66
2022/03/20 10:34:00;;;;;;;1.17;1.07;;;;;;;;;;5143929;27;20202;-67
2022/03/20 10:36:50;;;;;;;1.13;1.10;;;;;;;;;;5155822;27;20209;-65
2022/03/20 10:39:38;;;;;;;0.80;0.80;;;;;;;;;;5158626;27;20211;-65
2022/03/20 10:42:25;;;;;;;2.93;1.00;;;;;;;;;;5160588;27;20200;-67
2022/03/20 10:45:12;;;;;;;0.93;0.93;;;;;;;;;;5158544;27;20226;-65
2022/03/20 10:48:01;;;;;;;1.17;1.13;;;;;;;;;;5159491;27;20204;-66
2022/03/20 10:50:49;;;;;;;1.17;0.90;;;;;;;;;;5152669;27;20257;-66
2022/03/20 10:53:51;;;;;;;1.00;0.90;;;;;;;;;;5152010;27;20643;-66
2022/03/20 10:56:51;;;;;;;1.47;1.37;;;;;;;;;;5150316;27;20346;-65
2022/03/20 10:59:40;;;;;;;1.83;1.20;;;;;;;;;;5148652;27;20206;-65
2022/03/20 11:02:27;;;;;;;1.50;0.93;;;;;;;;;;5154030;27;20230;-65
2022/03/20 11:05:14;;;;;;;1.23;0.90;;;;;;;;;;5155538;27;20287;-64
2022/03/20 11:08:02;;;;;;;1.93;1.00;;;;;;;;;;5155242;27;20306;-65
2022/03/20 11:10:50;;;;;;;1.37;1.10;;;;;;;;;;5155708;27;20248;-65
2022/03/20 11:13:39;;;;;;;0.73;0.73;;;;;;;;;;5152740;27;20199;-67
2022/03/20 11:16:28;;;;;;;0.80;0.80;;;;;;;;;;5153072;27;20210;-66
2022/03/20 11:19:17;;;;;;;0.90;0.90;;;;;;;;;;5159013;27;20249;-65
2022/03/20 11:22:06;;;;;;;0.93;0.90;;;;;;;;;;5163990;27;20199;-65
2022/03/20 11:24:57;;;;;;;2.27;1.00;;;;;;;;;;5160766;27;20210;-65
2022/03/20 11:27:47;;;;;;;0.87;0.87;;;;;;;;;;5159675;27;20202;-65
2022/03/20 11:30:35;;;;;;;0.70;0.70;;;;;;;;;;5160228;27;20250;-65
2022/03/20 11:33:24;;;;;;;1.90;0.80;;;;;;;;;;5158468;27;20226;-65
2022/03/20 11:36:12;;;;;;;1.27;1.10;;;;;;;;;;5161508;27;20209;-65
2022/03/20 11:39:11;;;;;;;0.77;0.77;;;;;;;;;;5157290;27;20565;-68
2022/03/20 11:42:25;;;;;;;0.90;0.90;;;;;;;;;;5152335;27;20234;-65
2022/03/20 11:45:19;;;;;;;0.67;0.67;;;;;;;;;;5160793;27;20332;-65
2022/03/20 11:48:13;;;;;;;0.67;0.67;;;;;;;;;;5158041;27;20211;-66
2022/03/20 11:51:01;;;;;;;0.77;0.77;;;;;;;;;;5157210;27;20201;-65
2022/03/20 11:54:03;;;;;;;0.73;0.70;;;;;;;;;;5157967;27;20292;-66
2022/03/20 11:56:52;;;;;;;0.70;0.70;;;;;;;;;;5153954;27;20785;-65
2022/03/20 11:59:48;;;;;;;0.70;0.70;;;;;;;;;;5158883;27;20210;-65
2022/03/20 12:03:04;;;;;;;0.53;0.53;;;;;;;;;;5155705;27;21002;-65
2022/03/20 12:06:22;;;;;;;0.60;0.60;;;;;;;;;;5153004;27;20214;-67
2022/03/20 12:09:25;;;;;;;0.97;0.90;;;;;;;;;;5157416;27;20210;-65
2022/03/20 12:12:27;;;;;;;0.70;0.70;;;;;;;;;;5157393;27;20268;-65
2022/03/20 12:15:19;;;;;;;0.70;0.70;;;;;;;;;;5161352;27;20279;-65
2022/03/20 12:18:08;;;;;;;1.13;0.60;;;;;;;;;;5156134;27;20375;-66
2022/03/20 12:21:03;;;;;;;0.67;0.67;;;;;;;;;;5153209;27;20203;-66
2022/03/20 12:23:51;;;;;;;1.27;0.63;;;;;;;;;;5155173;27;20197;-66
2022/03/20 12:26:44;;;;;;;1.33;0.60;;;;;;;;;;5157089;27;20209;-67
2022/03/20 12:29:35;;;;;;;0.50;0.50;;;;;;;;;;5158771;27;20289;-66
2022/03/20 12:32:24;;;;;;;0.80;0.70;;;;;;;;;;5158119;27;20312;-66
2022/03/20 12:35:19;;;;;;;0.60;0.60;;;;;;;;;;5157195;27;20209;-66
2022/03/20 12:38:06;;;;;;;0.50;0.50;;;;;;;;;;5150733;27;20373;-67
2022/03/20 12:40:53;;;;;;;0.47;0.47;;;;;;;;;;5157821;27;20248;-68
2022/03/20 12:43:41;;;;;;;0.90;0.50;;;;;;;;;;5158745;27;20319;-66
2022/03/20 12:46:28;;;;;;;0.77;0.77;;;;;;;;;;5160070;27;20199;-67
2022/03/20 12:49:18;;;;;;;0.50;0.50;;;;;;;;;;5155058;27;20366;-66
2022/03/20 12:52:07;;;;;;;0.43;0.43;;;;;;;;;;5149878;27;20249;-66
2022/03/20 12:54:55;;;;;;;0.50;0.50;;;;;;;;;;5152113;27;20239;-66
2022/03/20 12:57:44;;;;;;;0.70;0.70;;;;;;;;;;5155415;27;20241;-66
2022/03/20 13:00:36;;;;;;;0.50;0.50;;;;;;;;;;5152438;27;20221;-65
2022/03/20 13:03:25;;;;;;;0.73;0.70;;;;;;;;;;5152708;27;20209;-65
2022/03/20 13:06:15;;;;;;;0.80;0.80;;;;;;;;;;5156584;27;20202;-65
2022/03/20 13:09:10;;;;;;;0.40;0.40;;;;;;;;;;5155748;27;20200;-66
2022/03/20 13:12:00;;;;;;;0.50;0.50;;;;;;;;;;5153192;27;20224;-67
2022/03/20 13:14:51;;;;;;;0.50;0.50;;;;;;;;;;5160838;27;20668;-66
2022/03/20 13:17:38;;;;;;;0.47;0.47;;;;;;;;;;5155323;27;20761;-67
2022/03/20 13:20:26;;;;;;;0.60;0.60;;;;;;;;;;5147927;27;20735;-66
2022/03/20 13:23:17;;;;;;;0.40;0.40;;;;;;;;;;5154384;27;20318;-65
2022/03/20 13:26:04;;;;;;;0.60;0.60;;;;;;;;;;5149789;27;20302;-67
2022/03/20 13:28:51;;;;;;;0.40;0.40;;;;;;;;;;5154429;27;20288;-65
2022/03/20 13:31:38;;;;;;;0.63;0.63;;;;;;;;;;5152895;27;20208;-66
2022/03/20 13:34:25;;;;;;;0.53;0.53;;;;;;;;;;5152996;27;20659;-66
2022/03/20 13:37:15;;;;;;;2.13;0.57;;;;;;;;;;5150289;27;20291;-66
2022/03/20 13:40:04;;;;;;;0.67;0.50;;;;;;;;;;5157151;27;20286;-65
2022/03/20 13:42:51;;;;;;;0.53;0.53;;;;;;;;;;5157117;27;20253;-66
2022/03/20 13:45:38;;;;;;;0.50;0.50;;;;;;;;;;5151857;27;20199;-66
2022/03/20 13:48:27;;;;;;;0.70;0.70;;;;;;;;;;5158378;27;20243;-66
2022/03/20 13:51:15;;;;;;;0.60;0.60;;;;;;;;;;5155089;27;20681;-66
2022/03/20 13:54:13;;;;;;;0.73;0.73;;;;;;;;;;5156795;27;20627;-66
2022/03/20 13:57:08;;;;;;;0.73;0.73;;;;;;;;;;5161096;27;20264;-74
2022/03/20 13:59:57;;;;;;;1.20;0.80;;;;;;;;;;5156731;27;20203;-66
2022/03/20 14:02:46;;;;;;;1.07;0.80;;;;;;;;;;5152434;27;20239;-66
2022/03/20 14:05:34;;;;;;;0.60;0.60;;;;;;;;;;5154464;27;20209;-66
2022/03/20 14:08:21;;;;;;;0.70;0.60;;;;;;;;;;5156119;27;20299;-66
2022/03/20 14:11:08;;;;;;;0.97;0.83;;;;;;;;;;5151070;27;20205;-66
2022/03/20 14:13:56;;;;;;;1.00;1.00;;;;;;;;;;5158795;27;20270;-66
2022/03/20 14:16:57;;;;;;;1.00;1.00;;;;;;;;;;5148029;27;20284;-66
2022/03/20 14:19:45;;;;;;;0.80;0.80;;;;;;;;;;5151817;27;20229;-66
2022/03/20 14:22:43;;;;;;;1.10;1.10;;;;;;;;;;5156922;27;20202;-66
2022/03/20 14:25:39;;;;;;;1.00;1.00;;;;;;;;;;5161068;27;20242;-67
2022/03/20 14:28:27;;;;;;;1.73;1.10;;;;;;;;;;5150919;27;20368;-67
2022/03/20 14:40:46;;;;;;;1.33;1.30;;;;;;;;;;5155124;27;20219;-67
2022/03/20 14:43:33;;;;;;;1.50;1.40;;;;;;;;;;5153832;27;20239;-67
2022/03/20 14:46:21;;;;;;;1.30;1.30;;;;;;;;;;5153192;27;20204;-65
2022/03/20 14:49:09;;;;;;;1.60;1.50;;;;;;;;;;5152334;27;20292;-66
2022/03/20 14:51:56;;;;;;;1.57;1.40;;;;;;;;;;5158175;27;20230;-66
2022/03/20 14:54:43;;;;;;;1.20;1.10;;;;;;;;;;5171266;27;20226;-66
2022/03/20 14:57:30;;;;;;;1.57;1.47;;;;;;;;;;5160270;27;20204;-67
2022/03/20 15:00:18;;;;;;;1.60;1.50;;;;;;;;;;5164424;27;20286;-66
2022/03/20 15:03:07;;;;;;;1.63;1.53;;;;;;;;;;5162523;27;20198;-72
2022/03/20 15:05:55;;;;;;;2.10;1.57;;;;;;;;;;5158956;27;20287;-67
2022/03/20 15:11:47;;;;;;;1.83;1.63;;;;;;;;;;5152795;27;20212;-69
2022/03/20 15:14:34;;;;;;;1.90;1.80;;;;;;;;;;5160024;27;20206;-68
2022/03/20 15:17:22;;;;;;;1.90;1.80;;;;;;;;;;5155885;27;20258;-66
2022/03/20 15:20:12;;;;;;;1.83;1.80;;;;;;;;;;5154040;27;20704;-66
2022/03/20 15:22:59;;;;;;;2.13;2.03;;;;;;;;;;5161096;27;20203;-67
2022/03/20 15:25:46;;;;;;;2.10;2.00;;;;;;;;;;5158159;27;20205;-67
2022/03/20 15:28:33;;;;;;;2.13;2.03;;;;;;;;;;5155481;27;20293;-67
2022/03/20 15:31:20;;;;;;;2.33;2.13;;;;;;;;;;5161562;27;20231;-67
2022/03/20 15:34:07;;;;;;;2.57;2.43;;;;;;;;;;5160368;27;20280;-67
2022/03/20 15:36:55;;;;;;;2.40;2.30;;;;;;;;;;5154524;27;20655;-66
2022/03/20 15:39:43;;;;;;;2.90;2.70;;;;;;;;;;5154982;27;20201;-66
2022/03/20 15:42:30;;;;;;;2.50;2.30;;;;;;;;;;5154229;27;20234;-66
2022/03/20 15:45:18;;;;;;;2.23;2.13;;;;;;;;;;5159343;27;20355;-67
2022/03/20 15:48:06;;;;;;;2.67;2.53;;;;;;;;;;5158142;27;20666;-67
2022/03/20 15:50:52;;;;;;;2.90;2.70;;;;;;;;;;5150714;27;20266;-67
2022/03/20 15:53:41;;;;;;;2.53;2.43;;;;;;;;;;5156721;27;20228;-68
2022/03/20 15:56:28;;;;;;;2.97;2.77;;;;;;;;;;5155310;27;20231;-68
2022/03/20 15:59:15;;;;;;;2.80;2.60;;;;;;;;;;5153940;27;20331;-68
2022/03/20 16:02:02;;;;;;;3.13;2.93;;;;;;;;;;5155646;27;20284;-67
2022/03/20 16:04:49;;;;;;;3.00;2.80;;;;;;;;;;5162692;27;20229;-68
2022/03/20 16:07:36;;;;;;;3.23;3.03;;;;;;;;;;5156799;27;20328;-67
2022/03/20 16:10:24;;;;;;;3.10;2.90;;;;;;;;;;5156979;27;20689;-66
2022/03/20 16:13:13;;;;;;;3.23;2.93;;;;;;;;;;5157237;27;20318;-67
2022/03/20 16:16:02;;;;;;;3.03;2.83;;;;;;;;;;5153906;27;20191;-70
2022/03/20 16:18:49;;;;;;;3.20;3.00;;;;;;;;;;5160039;27;20315;-67
2022/03/20 16:21:36;;;;;;;2.90;2.70;;;;;;;;;;5160124;27;20207;-67
2022/03/20 16:30:34;;;;;;;3.10;2.90;;;;;;;;;;5151637;27;20205;-67
2022/03/20 16:33:20;;;;;;;3.50;3.20;;;;;;;;;;5160268;27;20272;-67
2022/03/20 16:36:08;;;;;;;3.20;3.00;;;;;;;;;;5153907;27;20204;-69
2022/03/20 16:38:55;;;;;;;3.53;3.33;;;;;;;;;;5144061;27;20519;-67
2022/03/20 16:41:42;;;;;;;3.97;3.17;;;;;;;;;;5157042;27;20209;-68
2022/03/20 16:44:33;;;;;;;3.30;3.10;;;;;;;;;;5160201;27;20348;-68
2022/03/20 16:47:20;;;;;;;3.20;3.00;;;;;;;;;;5155761;27;20210;-67
2022/03/20 16:50:11;;;;;;;3.30;3.10;;;;;;;;;;5159426;27;20289;-68
2022/03/20 16:52:58;;;;;;;3.70;3.40;;;;;;;;;;5152009;27;20235;-67
2022/03/20 16:55:46;;;;;;;3.83;3.53;;;;;;;;;;5156067;27;20803;-68
2022/03/20 16:58:34;;;;;;;3.70;3.40;;;;;;;;;;5156252;27;20213;-67
2022/03/20 17:01:22;;;;;;;3.77;3.57;;;;;;;;;;5151724;27;20251;-67
2022/03/20 17:04:09;;;;;;;3.73;3.50;;;;;;;;;;5158537;27;20256;-68
2022/03/20 17:06:56;;;;;;;4.10;3.67;;;;;;;;;;5153610;27;20259;-67
2022/03/20 17:09:43;;;;;;;4.43;4.03;;;;;;;;;;5146809;27;20233;-67
2022/03/20 17:12:30;;;;;;;3.77;3.50;;;;;;;;;;5156543;27;20288;-68
2022/03/20 17:15:17;;;;;;;4.40;4.10;;;;;;;;;;5161651;27;20644;-68
2022/03/20 17:18:07;;;;;;;4.40;4.00;;;;;;;;;;5155548;27;20209;-67
2022/03/20 17:20:54;;;;;;;4.13;3.83;;;;;;;;;;5147144;27;20221;-68
2022/03/20 17:23:41;;;;;;;4.27;3.87;;;;;;;;;;5159749;27;20289;-68
2022/03/20 17:26:28;;;;;;;4.20;3.80;;;;;;;;;;5149039;27;20209;-68
2022/03/20 17:29:15;;;;;;;4.27;3.97;;;;;;;;;;5161842;27;20293;-67
2022/03/20 17:32:02;;;;;;;4.23;3.93;;;;;;;;;;5159126;27;20205;-68
2022/03/20 17:34:50;;;;;;;4.10;3.80;;;;;;;;;;5155150;27;20713;-68
2022/03/20 17:37:38;;;;;;;5.37;4.50;;;;;;;;;;5159133;27;20205;-67
2022/03/20 17:40:25;;;;;;;6.03;4.50;;;;;;;;;;5151190;27;20297;-67
2022/03/20 17:43:12;;;;;;;4.27;3.93;;;;;;;;;;5152124;27;20285;-67
2022/03/20 17:45:59;;;;;;;4.70;4.20;;;;;;;;;;5156894;27;20202;-67